createdAt,value
2023-02-20T00:00:18.434Z,100.00
2023-02-20T00:03:08.829Z,100.00
2023-02-20T00:05:39.460Z,100.00
2023-02-20T00:08:09.595Z,100.00
2023-02-20T00:10:40.146Z,100.00
2023-02-20T00:13:10.473Z,100.00
2023-02-20T00:15:41.601Z,100.00
2023-02-20T00:18:11.632Z,99.72
2023-02-20T00:20:41.353Z,99.67
2023-02-20T00:23:11.433Z,99.79
2023-02-20T00:25:41.270Z,99.25
2023-02-20T00:28:11.314Z,99.19
2023-02-20T00:30:43.375Z,99.23
2023-02-20T00:33:16.884Z,98.46
2023-02-20T00:35:46.693Z,98.05
2023-02-20T00:38:16.961Z,98.06
2023-02-20T00:40:48.722Z,98.78
2023-02-20T00:43:20.075Z,98.68
2023-02-20T00:45:52.273Z,98.89
2023-02-20T00:48:22.296Z,98.29
2023-02-20T00:51:11.853Z,97.63
2023-02-20T00:53:42.200Z,97.97
2023-02-20T00:56:11.970Z,97.59
2023-02-20T00:58:43.180Z,97.68
2023-02-20T01:01:16.841Z,96.28
2023-02-20T01:03:47.218Z,96.20
2023-02-20T01:06:17.946Z,96.06
2023-02-20T01:08:51.421Z,95.42
2023-02-20T01:11:25.814Z,95.96
2023-02-20T01:13:55.958Z,95.22
2023-02-20T01:16:27.372Z,94.95
2023-02-20T01:18:58.886Z,95.02
2023-02-20T01:21:28.624Z,94.86
2023-02-20T01:23:59.827Z,94.89
2023-02-20T01:26:29.517Z,94.43
2023-02-20T01:28:59.816Z,94.46
2023-02-20T01:31:31.232Z,94.63
2023-02-20T01:34:02.528Z,94.06
2023-02-20T01:36:32.346Z,93.62
2023-02-20T01:39:02.412Z,93.60
2023-02-20T01:41:32.589Z,93.99
2023-02-20T01:44:05.140Z,93.92
2023-02-20T01:46:58.966Z,94.15
2023-02-20T01:49:33.074Z,94.59
2023-02-20T01:52:06.953Z,95.02
2023-02-20T01:54:38.897Z,95.53
2023-02-20T01:57:11.186Z,95.31
2023-02-20T01:59:43.224Z,95.33
2023-02-20T02:02:15.688Z,95.82
2023-02-20T02:04:49.069Z,96.28
2023-02-20T02:07:18.943Z,96.14
2023-02-20T02:09:51.993Z,96.01
2023-02-20T02:12:23.040Z,96.96
2023-02-20T02:14:54.406Z,97.03
2023-02-20T02:17:41.237Z,97.71
2023-02-20T02:20:36.918Z,97.41
2023-02-20T02:23:27.546Z,97.59
2023-02-20T02:25:59.003Z,98.35
2023-02-20T02:28:40.003Z,98.48
2023-02-20T02:31:25.320Z,98.26
2023-02-20T02:34:10.813Z,98.58
2023-02-20T02:36:51.130Z,98.92
2023-02-20T02:39:26.917Z,99.24
2023-02-20T02:42:00.393Z,99.07
2023-02-20T02:44:33.997Z,99.30
2023-02-20T02:47:07.035Z,99.40
2023-02-20T02:49:39.892Z,100.00
2023-02-20T02:52:13.327Z,100.00
2023-02-20T02:54:45.380Z,100.00
2023-02-20T02:57:21.333Z,100.00
2023-02-20T02:59:58.083Z,100.00
2023-02-20T03:02:31.963Z,99.87
2023-02-20T03:05:03.501Z,99.40
2023-02-20T03:07:36.908Z,100.00
2023-02-20T03:10:08.815Z,100.00
2023-02-20T03:12:42.836Z,100.00
2023-02-20T03:15:33.153Z,100.00
2023-02-20T03:18:11.949Z,100.00
2023-02-20T03:20:44.408Z,100.00
2023-02-20T03:23:17.526Z,100.00
2023-02-20T03:25:51.910Z,100.00
2023-02-20T03:28:24.866Z,100.00
2023-02-20T03:30:57.541Z,100.00
2023-02-20T03:33:50.299Z,100.00
2023-02-20T03:36:42.283Z,100.00
2023-02-20T03:39:33.282Z,100.00
2023-02-20T03:42:23.288Z,100.00
2023-02-20T03:45:01.373Z,100.00
2023-02-20T03:47:35.515Z,100.00
2023-02-20T03:50:08.265Z,100.00
2023-02-20T03:52:38.404Z,100.00
2023-02-20T03:55:10.665Z,100.00
2023-02-20T03:57:43.459Z,100.00
2023-02-20T04:00:17.500Z,100.00
2023-02-20T04:02:55.103Z,100.00
2023-02-20T04:05:30.097Z,100.00
2023-02-20T04:08:03.681Z,100.00
2023-02-20T04:10:39.296Z,100.00
2023-02-20T04:13:09.635Z,100.00
2023-02-20T04:15:41.198Z,100.00
2023-02-20T04:18:12.543Z,100.00
2023-02-20T04:20:45.104Z,100.00
2023-02-20T04:23:25.958Z,100.00
2023-02-20T04:25:59.061Z,100.00
2023-02-20T04:28:29.956Z,100.00
2023-02-20T04:31:04.547Z,100.00
2023-02-20T04:33:36.740Z,100.00
2023-02-20T04:36:13.047Z,100.00
2023-02-20T04:38:44.055Z,100.00
2023-02-20T04:41:18.789Z,100.00
2023-02-20T04:43:49.677Z,100.00
2023-02-20T04:46:20.817Z,100.00
2023-02-20T04:48:50.567Z,100.00
2023-02-20T04:51:20.688Z,100.00
2023-02-20T04:53:51.212Z,100.00
2023-02-20T04:56:22.838Z,100.00
2023-02-20T04:58:52.818Z,100.00
2023-02-20T05:01:26.007Z,100.00
2023-02-20T05:03:56.685Z,100.00
2023-02-20T05:06:26.822Z,100.00
2023-02-20T05:08:57.100Z,100.00
2023-02-20T05:11:29.129Z,100.00
2023-02-20T05:13:58.896Z,100.00
2023-02-20T05:16:28.958Z,100.00
2023-02-20T05:19:00.926Z,100.00
2023-02-20T05:21:48.232Z,100.00
2023-02-20T05:24:17.883Z,100.00
2023-02-20T05:26:49.918Z,100.00
2023-02-20T05:29:19.753Z,100.00
2023-02-20T05:31:49.682Z,100.00
2023-02-20T05:34:21.669Z,100.00
2023-02-20T05:36:51.777Z,100.00
2023-02-20T05:39:21.928Z,100.00
2023-02-20T05:41:53.487Z,100.00
2023-02-20T05:44:23.167Z,100.00
2023-02-20T05:46:54.425Z,100.00
2023-02-20T05:49:24.709Z,100.00
2023-02-20T05:51:57.395Z,100.00
2023-02-20T05:54:27.165Z,100.00
2023-02-20T05:57:01.138Z,100.00
2023-02-20T05:59:34.110Z,100.00
2023-02-20T06:02:05.166Z,100.00
2023-02-20T06:04:36.606Z,100.00
2023-02-20T06:07:10.526Z,100.00
2023-02-20T06:09:43.194Z,100.00
2023-02-20T06:12:15.203Z,100.00
2023-02-20T06:14:45.033Z,100.00
2023-02-20T06:17:15.304Z,100.00
2023-02-20T06:19:45.082Z,100.00
2023-02-20T06:22:15.264Z,100.00
2023-02-20T06:24:47.554Z,100.00
2023-02-20T06:27:19.483Z,100.00
2023-02-20T06:29:49.314Z,100.00
2023-02-20T06:32:19.468Z,100.00
2023-02-20T06:34:49.286Z,100.00
2023-02-20T06:37:19.318Z,100.00
2023-02-20T06:39:50.341Z,100.00
2023-02-20T06:42:22.153Z,100.00
2023-02-20T06:44:54.547Z,100.00
2023-02-20T06:47:24.950Z,100.00
2023-02-20T06:49:54.715Z,100.00
2023-02-20T06:52:25.016Z,100.00
2023-02-20T06:54:54.645Z,100.00
2023-02-20T06:57:26.462Z,100.00
2023-02-20T06:59:56.485Z,100.00
2023-02-20T07:02:26.812Z,100.00
2023-02-20T07:04:56.567Z,100.00
2023-02-20T07:07:26.626Z,100.00
2023-02-20T07:09:56.576Z,100.00
2023-02-20T07:12:30.256Z,100.00
2023-02-20T07:15:00.136Z,100.00
2023-02-20T07:17:30.188Z,100.00
2023-02-20T07:20:00.295Z,100.00
2023-02-20T07:22:31.029Z,100.00
2023-02-20T07:25:00.778Z,100.00
2023-02-20T07:27:32.296Z,100.00
2023-02-20T07:30:02.390Z,100.00
2023-02-20T07:32:32.814Z,100.00
2023-02-20T07:35:06.828Z,100.00
2023-02-20T07:37:38.424Z,100.00
2023-02-20T07:40:08.879Z,100.00
2023-02-20T07:42:40.520Z,100.00
2023-02-20T07:45:19.735Z,100.00
2023-02-20T07:47:49.753Z,100.00
2023-02-20T07:50:19.551Z,100.00
2023-02-20T07:52:49.619Z,100.00
2023-02-20T07:55:19.878Z,100.00
2023-02-20T07:57:52.267Z,100.00
2023-02-20T08:00:22.387Z,100.00
2023-02-20T08:02:52.827Z,100.00
2023-02-20T08:05:23.034Z,100.00
2023-02-20T08:07:54.146Z,100.00
2023-02-20T08:10:25.565Z,100.00
2023-02-20T08:12:57.700Z,100.00
2023-02-20T08:15:27.541Z,100.00
2023-02-20T08:17:58.287Z,100.00
2023-02-20T08:20:28.399Z,100.00
2023-02-20T08:23:01.054Z,100.00
2023-02-20T08:25:31.379Z,100.00
2023-02-20T08:28:03.039Z,100.00
2023-02-20T08:30:32.942Z,100.00
2023-02-20T08:33:06.615Z,100.00
2023-02-20T08:35:37.056Z,100.00
2023-02-20T08:38:09.411Z,100.00
2023-02-20T08:40:39.026Z,100.00
2023-02-20T08:43:10.798Z,100.00
2023-02-20T08:45:40.887Z,100.00
2023-02-20T08:48:11.225Z,100.00
2023-02-20T08:50:41.266Z,100.00
2023-02-20T08:53:11.333Z,100.00
2023-02-20T08:55:41.135Z,100.00
2023-02-20T08:58:13.881Z,100.00
2023-02-20T09:00:44.902Z,100.00
2023-02-20T09:03:15.228Z,100.00
2023-02-20T09:05:45.480Z,100.00
2023-02-20T09:08:15.636Z,100.00
2023-02-20T09:10:45.770Z,100.00
2023-02-20T09:13:18.593Z,100.00
2023-02-20T09:15:49.027Z,100.00
2023-02-20T09:18:19.654Z,100.00
2023-02-20T09:20:49.744Z,100.00
2023-02-20T09:23:21.903Z,100.00
2023-02-20T09:25:51.736Z,100.00
2023-02-20T09:28:23.669Z,100.00
2023-02-20T09:30:55.937Z,100.00
2023-02-20T09:33:26.409Z,100.00
2023-02-20T09:35:56.532Z,100.00
2023-02-20T09:38:28.148Z,100.00
2023-02-20T09:40:58.697Z,100.00
2023-02-20T09:43:38.715Z,100.00
2023-02-20T09:46:12.019Z,100.00
2023-02-20T09:48:49.100Z,100.00
2023-02-20T09:51:21.840Z,100.00
2023-02-20T09:53:54.911Z,100.00
2023-02-20T09:56:26.912Z,100.00
2023-02-20T09:59:01.139Z,100.00
2023-02-20T10:01:31.548Z,100.00
2023-02-20T10:04:04.647Z,100.00
2023-02-20T10:06:35.612Z,100.00
2023-02-20T10:09:06.774Z,100.00
2023-02-20T10:11:54.517Z,100.00
2023-02-20T10:17:28.931Z,100.00
2023-02-20T10:20:04.201Z,100.00
2023-02-20T10:22:35.501Z,100.00
2023-02-20T10:25:11.096Z,100.00
2023-02-20T10:27:45.512Z,100.00
2023-02-20T10:30:19.628Z,100.00
2023-02-20T10:32:52.834Z,100.00
2023-02-20T10:35:25.537Z,100.00
2023-02-20T10:37:57.345Z,100.00
2023-02-20T10:40:30.883Z,100.00
2023-02-20T10:43:03.521Z,100.00
2023-02-20T10:45:39.481Z,100.00
2023-02-20T10:48:15.739Z,100.00
2023-02-20T10:50:48.858Z,100.00
2023-02-20T10:53:22.945Z,100.00
2023-02-20T10:55:55.597Z,100.00
2023-02-20T10:58:28.263Z,100.00
2023-02-20T11:01:00.468Z,100.00
2023-02-20T11:03:37.677Z,100.00
2023-02-20T11:06:09.009Z,100.00
2023-02-20T11:08:39.128Z,100.00
2023-02-20T11:11:19.302Z,100.00
2023-02-20T11:13:49.112Z,100.00
2023-02-20T11:16:23.131Z,100.00
2023-02-20T11:19:03.293Z,100.00
2023-02-20T11:21:38.477Z,100.00
2023-02-20T11:24:21.756Z,100.00
2023-02-20T11:26:53.090Z,100.00
2023-02-20T11:29:24.541Z,100.00
2023-02-20T11:31:54.713Z,100.00
2023-02-20T11:34:27.273Z,100.00
2023-02-20T11:37:06.174Z,100.00
2023-02-20T11:39:36.091Z,100.00
2023-02-20T11:42:07.815Z,100.00
2023-02-20T11:44:37.599Z,100.00
2023-02-20T11:47:28.883Z,100.00
2023-02-20T11:50:19.004Z,100.00
2023-02-20T11:53:02.560Z,100.00
2023-02-20T11:55:32.575Z,100.00
2023-02-20T11:58:04.326Z,100.00
2023-02-20T12:00:45.883Z,100.00
2023-02-20T12:03:19.820Z,100.00
2023-02-20T12:05:50.697Z,100.00
2023-02-20T12:08:25.709Z,100.00
2023-02-20T12:11:00.240Z,100.00
2023-02-20T12:13:31.302Z,100.00
2023-02-20T12:16:06.289Z,100.00
2023-02-20T12:18:44.026Z,100.00
2023-02-20T12:21:25.445Z,100.00
2023-02-20T12:24:02.151Z,100.00
2023-02-20T12:26:38.491Z,100.00
2023-02-20T12:29:15.859Z,100.00
2023-02-20T12:32:10.951Z,100.00
2023-02-20T12:34:47.728Z,100.00
2023-02-20T12:37:22.509Z,100.00
2023-02-20T12:39:59.911Z,100.00
2023-02-20T12:42:33.784Z,100.00
2023-02-20T12:45:19.031Z,100.00
2023-02-20T12:47:54.267Z,100.00
2023-02-20T12:50:36.057Z,100.00
2023-02-20T12:53:14.350Z,100.00
2023-02-20T12:55:52.888Z,100.00
2023-02-20T12:58:35.157Z,100.00
2023-02-20T13:01:09.022Z,100.00
2023-02-20T13:03:44.648Z,100.00
2023-02-20T13:06:18.898Z,100.00
2023-02-20T13:08:54.975Z,100.00
2023-02-20T13:11:28.000Z,100.00
2023-02-20T13:14:03.639Z,100.00
2023-02-20T13:16:36.510Z,100.00
2023-02-20T13:19:08.109Z,100.00
2023-02-20T13:21:38.792Z,100.00
2023-02-20T13:24:28.113Z,100.00
2023-02-20T13:27:06.972Z,100.00
2023-02-20T13:29:38.226Z,100.00
2023-02-20T13:32:24.366Z,100.00
2023-02-20T13:34:56.844Z,100.00
2023-02-20T13:37:45.659Z,100.00
2023-02-20T13:40:30.089Z,100.00
2023-02-20T13:43:18.927Z,100.00
2023-02-20T13:45:51.149Z,100.00
2023-02-20T13:48:22.554Z,100.00
2023-02-20T13:50:52.334Z,100.00
2023-02-20T13:53:22.606Z,100.00
2023-02-20T13:55:52.236Z,100.00
2023-02-20T13:58:23.293Z,100.00
2023-02-20T14:00:55.341Z,100.00
2023-02-20T14:03:26.754Z,100.00
2023-02-20T14:06:07.584Z,100.00
2023-02-20T14:08:38.490Z,100.00
2023-02-20T14:11:09.411Z,100.00
2023-02-20T14:13:41.178Z,100.00
2023-02-20T14:16:35.470Z,100.00
2023-02-20T14:19:09.668Z,100.00
2023-02-20T14:21:40.008Z,100.00
2023-02-20T14:24:18.848Z,100.00
2023-02-20T14:26:49.224Z,100.00
2023-02-20T14:29:23.203Z,100.00
2023-02-20T14:31:54.195Z,100.00
2023-02-20T14:34:30.975Z,100.00
2023-02-20T14:37:05.682Z,100.00
2023-02-20T14:39:41.193Z,100.00
2023-02-20T14:42:15.616Z,100.00
2023-02-20T14:44:49.563Z,100.00
2023-02-20T14:47:19.510Z,100.00
2023-02-20T14:49:51.379Z,100.00
2023-02-20T14:52:23.177Z,100.00
2023-02-20T14:55:01.011Z,100.00
2023-02-20T14:57:32.882Z,100.00
2023-02-20T15:00:10.724Z,100.00
2023-02-20T15:02:43.262Z,100.00
2023-02-20T15:05:18.623Z,100.00
2023-02-20T15:07:51.421Z,100.00
2023-02-20T15:10:35.071Z,100.00
2023-02-20T15:13:07.723Z,100.00
2023-02-20T15:15:39.023Z,100.00
2023-02-20T15:18:09.782Z,100.00
2023-02-20T15:20:43.126Z,100.00
2023-02-20T15:23:23.294Z,100.00
2023-02-20T15:25:53.555Z,100.00
2023-02-20T15:28:27.764Z,100.00
2023-02-20T15:31:05.504Z,100.00
2023-02-20T15:33:36.104Z,100.00
2023-02-20T15:36:13.676Z,100.00
2023-02-20T15:38:43.746Z,100.00
2023-02-20T15:41:14.352Z,100.00
2023-02-20T15:43:48.945Z,100.00
2023-02-20T15:46:21.413Z,100.00
2023-02-20T15:48:51.593Z,100.00
2023-02-20T15:51:24.089Z,100.00
2023-02-20T15:53:55.046Z,100.00
2023-02-20T15:56:25.387Z,100.00
2023-02-20T15:58:55.014Z,100.00
2023-02-20T16:01:25.070Z,100.00
2023-02-20T16:03:55.042Z,100.00
2023-02-20T16:06:26.772Z,100.00
2023-02-20T16:08:56.671Z,100.00
2023-02-20T16:11:27.860Z,100.00
2023-02-20T16:13:59.903Z,100.00
2023-02-20T16:16:33.235Z,100.00
2023-02-20T16:19:03.362Z,100.00
2023-02-20T16:21:35.123Z,100.00
2023-02-20T16:24:05.032Z,100.00
2023-02-20T16:26:36.452Z,100.00
2023-02-20T16:29:08.166Z,100.00
2023-02-20T16:31:56.849Z,100.00
2023-02-20T16:34:27.371Z,100.00
2023-02-20T16:36:59.146Z,100.00
2023-02-20T16:39:28.802Z,100.00
2023-02-20T16:42:00.230Z,100.00
2023-02-20T16:44:36.355Z,100.00
2023-02-20T16:47:08.102Z,100.00
2023-02-20T16:49:40.545Z,100.00
2023-02-20T16:52:18.088Z,100.00
2023-02-20T16:54:49.742Z,100.00
2023-02-20T16:57:21.931Z,100.00
2023-02-20T16:59:55.074Z,100.00
2023-02-20T17:02:26.855Z,100.00
2023-02-20T17:04:57.122Z,100.00
2023-02-20T17:07:30.614Z,100.00
2023-02-20T17:10:00.404Z,100.00
2023-02-20T17:12:31.399Z,100.00
2023-02-20T17:15:01.392Z,100.00
2023-02-20T17:17:33.488Z,100.00
2023-02-20T17:20:03.470Z,100.00
2023-02-20T17:22:35.050Z,100.00
2023-02-20T17:25:04.860Z,100.00
2023-02-20T17:27:34.964Z,100.00
2023-02-20T17:30:05.156Z,100.00
2023-02-20T17:32:35.786Z,100.00
2023-02-20T17:35:06.075Z,100.00
2023-02-20T17:37:37.647Z,100.00
2023-02-20T17:40:10.078Z,100.00
2023-02-20T17:42:40.119Z,100.00
2023-02-20T17:45:10.443Z,99.41
2023-02-20T17:47:40.533Z,98.96
2023-02-20T17:50:10.485Z,98.11
2023-02-20T17:52:45.492Z,98.80
2023-02-20T17:55:20.860Z,97.63
2023-02-20T17:57:51.482Z,96.92
2023-02-20T18:00:22.339Z,96.92
2023-02-20T18:02:52.386Z,96.55
2023-02-20T18:05:22.060Z,96.13
2023-02-20T18:07:53.476Z,97.55
2023-02-20T18:10:23.511Z,96.97
2023-02-20T18:13:04.097Z,97.45
2023-02-20T18:15:34.744Z,96.69
2023-02-20T18:18:07.853Z,95.96
2023-02-20T18:20:41.372Z,95.59
2023-02-20T18:23:12.737Z,94.43
2023-02-20T18:25:42.613Z,92.95
2023-02-20T18:28:13.037Z,93.96
2023-02-20T18:30:42.921Z,94.02
2023-02-20T18:33:13.329Z,95.10
2023-02-20T18:35:42.966Z,93.58
2023-02-20T18:38:14.748Z,93.29
2023-02-20T18:40:47.577Z,93.02
2023-02-20T18:43:17.634Z,95.11
2023-02-20T18:45:47.466Z,95.37
2023-02-20T18:48:18.336Z,94.28
2023-02-20T18:50:47.998Z,93.21
2023-02-20T18:53:21.646Z,92.30
2023-02-20T18:55:51.230Z,91.81
2023-02-20T18:58:21.253Z,91.59
2023-02-20T19:00:51.033Z,91.69
2023-02-20T19:03:21.547Z,92.65
2023-02-20T19:05:52.349Z,92.22
2023-02-20T19:08:24.386Z,92.14
2023-02-20T19:10:54.134Z,91.58
2023-02-20T19:13:24.228Z,90.77
2023-02-20T19:15:53.884Z,91.35
2023-02-20T19:18:23.994Z,91.61
2023-02-20T19:20:53.715Z,91.52
2023-02-20T19:23:25.208Z,90.98
2023-02-20T19:25:59.663Z,90.90
2023-02-20T19:28:31.259Z,90.23
2023-02-20T19:31:01.356Z,90.31
2023-02-20T19:33:32.998Z,89.98
2023-02-20T19:36:03.258Z,91.68
2023-02-20T19:38:35.728Z,90.30
2023-02-20T19:41:05.717Z,91.23
2023-02-20T19:43:36.638Z,89.66
2023-02-20T19:46:06.521Z,90.68
2023-02-20T19:48:36.422Z,90.25
2023-02-20T19:51:09.342Z,90.17
2023-02-20T19:53:41.129Z,89.46
2023-02-20T19:56:11.296Z,89.41
2023-02-20T19:58:42.032Z,89.51
2023-02-20T20:01:16.681Z,89.48
2023-02-20T20:03:49.942Z,89.01
2023-02-20T20:06:20.115Z,88.93
2023-02-20T20:09:10.426Z,89.80
2023-02-20T20:11:41.528Z,89.07
2023-02-20T20:14:12.679Z,89.12
2023-02-20T20:16:44.087Z,87.93
2023-02-20T20:19:14.580Z,88.50
2023-02-20T20:21:44.339Z,87.34
2023-02-20T20:24:16.108Z,86.25
2023-02-20T20:26:45.815Z,87.39
2023-02-20T20:29:16.100Z,86.60
2023-02-20T20:31:46.084Z,88.48
2023-02-20T20:34:16.149Z,89.00
2023-02-20T20:36:45.702Z,87.73
2023-02-20T20:39:17.769Z,88.15
2023-02-20T20:41:47.548Z,87.90
2023-02-20T20:44:19.572Z,86.98
2023-02-20T20:46:49.158Z,88.38
2023-02-20T20:49:19.108Z,88.51
2023-02-20T20:51:48.898Z,88.71
2023-02-20T20:54:20.638Z,89.03
2023-02-20T20:56:51.053Z,87.77
2023-02-20T20:59:21.182Z,87.15
2023-02-20T21:01:50.965Z,87.77
2023-02-20T21:04:21.057Z,87.44
2023-02-20T21:06:51.242Z,86.37
2023-02-20T21:09:25.986Z,86.86
2023-02-20T21:11:55.837Z,85.59
2023-02-20T21:14:27.598Z,86.07
2023-02-20T21:16:58.227Z,87.04
2023-02-20T21:19:28.624Z,86.93
2023-02-20T21:21:58.362Z,86.29
2023-02-20T21:24:29.729Z,86.17
2023-02-20T21:26:59.367Z,87.27
2023-02-20T21:29:29.298Z,86.43
2023-02-20T21:31:59.255Z,87.43
2023-02-20T21:34:31.572Z,86.23
2023-02-20T21:37:03.099Z,87.36
2023-02-20T21:39:34.630Z,86.32
2023-02-20T21:42:21.408Z,86.77
2023-02-20T21:44:51.998Z,86.52
2023-02-20T21:47:21.690Z,86.01
2023-02-20T21:49:51.749Z,85.84
2023-02-20T21:52:21.860Z,86.96
2023-02-20T21:54:54.329Z,87.50
2023-02-20T21:57:26.940Z,87.38
2023-02-20T21:59:55.738Z,87.58
2023-02-20T22:02:23.892Z,88.04
2023-02-20T22:04:52.669Z,88.32
2023-02-20T22:07:39.659Z,88.00
2023-02-20T22:10:29.902Z,86.90
2023-02-20T22:13:18.195Z,85.70
2023-02-20T22:16:05.938Z,86.80
2023-02-20T22:18:53.341Z,86.34
2023-02-20T22:21:41.498Z,87.69
2023-02-20T22:24:37.797Z,86.69
2023-02-20T22:27:28.636Z,85.25
2023-02-20T22:30:15.759Z,84.16
2023-02-20T22:33:03.125Z,83.79
2023-02-20T22:35:51.856Z,84.88
2023-02-20T22:38:39.933Z,83.49
2023-02-20T22:41:26.930Z,82.71
2023-02-20T22:44:15.612Z,84.63
2023-02-20T22:47:04.853Z,83.86
2023-02-20T22:49:52.495Z,85.54
2023-02-20T22:52:39.810Z,84.90
2023-02-20T22:55:26.998Z,85.43
2023-02-20T22:58:13.961Z,85.95
2023-02-20T23:01:02.832Z,86.56
2023-02-20T23:03:50.818Z,87.01
2023-02-20T23:06:38.404Z,86.17
2023-02-20T23:09:26.392Z,85.53
2023-02-20T23:12:15.150Z,85.28
2023-02-20T23:15:02.240Z,85.96
2023-02-20T23:17:50.662Z,86.29
2023-02-20T23:20:39.145Z,85.26
2023-02-20T23:23:27.814Z,86.07
2023-02-20T23:26:14.561Z,84.85
2023-02-20T23:29:02.092Z,85.62
2023-02-20T23:31:49.749Z,85.41
2023-02-20T23:34:39.003Z,83.80
2023-02-20T23:37:26.269Z,84.12
2023-02-20T23:40:14.816Z,84.19
2023-02-20T23:43:01.664Z,84.73
2023-02-20T23:45:48.902Z,84.80
2023-02-20T23:48:36.280Z,83.35
2023-02-20T23:51:27.778Z,83.79
2023-02-20T23:54:14.515Z,83.94
2023-02-20T23:57:02.548Z,83.91
2023-02-20T23:59:49.509Z,84.67
